Kezdőlap
METAR-TAF:

METAR-TAF

Repülőterek :

Guilin, Kína

földrajzi szélesség: 25-20N, földrajzi hosszúság: 110-18E, magasság: 166 m

Jelenlegi meteorológiai megfigyelések

A jelentés 43 perccel ezelõtt készült, 19:00 UTC
Szélcsend
Hőmérséklet 23°C
Páratartalom 94%
Légköri nyomás 1011 hPa
Látótávolság 10 km, vagy több
Borult 5000 lábon

METAR: ZGKL 271900Z 00000MPS 9999 OVC050 23/22 Q1011 NOSIG

Idő: 03:43 (19:43 UTC)

Előrejelzés

A jelentés 4 órával és 30 perccel ezelõtt készült, 15:13 UTC
Az előrejelzés 27-én 18 óra UTC és 28-én 18 óra UTC között érvényes
Északkeleti szél 6 kt
Látótávolság: 6000 m
Szórványos felhőzet 2600 lábon
Borult 4000 lábon
27-én 20 óra UTC és 27-én 24 óra UTC között ideiglenes
Látótávolság: 2500 m
enyhe esõ, Párásság

TAF: ZGKL 271513Z 2718/2818 05003MPS 6000 SCT026 OVC040 TX30/2808Z TN22/2721Z TEMPO 2720/2724 2500 -RA BR

Meteorológiai megfigyelések és előrejelzések több, mint 4000 repülőtéren (METAR és TAF jelentéseket).

A térképen piros és sárga pontok jelzik az elérhető meteorológiai állomásokat.

Mozgassa az egeret a pont fölött, hogy megjelenjen az állomás neve.

Azután kattintson az időjárási megfigyelések és előrejelzések megtekintéséhez.

A térkép megváltoztatása: kattintson a fekete keresztel jelölt zöld gombra ráközelítéshez, a vonallal jelölt zöld gombra távolításhoz, vagy a zöld nyilakra a szomszédos térképek eléréséhez.


METAR-TAF: